createdAt,value
2018-08-13T00:00:06.201Z,23.14
2018-08-13T00:01:15.762Z,23.1
2018-08-13T00:02:25.596Z,23.04
2018-08-13T00:03:35.663Z,23.1
2018-08-13T00:04:45.752Z,23.01
2018-08-13T00:05:55.559Z,23
2018-08-13T00:07:05.736Z,22.96
2018-08-13T00:08:15.860Z,22.96
2018-08-13T00:09:25.915Z,22.97
2018-08-13T00:10:35.990Z,22.94
2018-08-13T00:11:46.093Z,22.91
2018-08-13T00:12:56.155Z,22.91
2018-08-13T00:14:05.963Z,22.86
2018-08-13T00:15:16.071Z,22.81
2018-08-13T00:16:26.144Z,22.78
2018-08-13T00:17:36.410Z,22.76
2018-08-13T00:18:46.825Z,22.81
2018-08-13T00:19:56.900Z,22.73
2018-08-13T00:21:06.712Z,22.69
2018-08-13T00:22:16.526Z,22.66
2018-08-13T00:23:26.611Z,22.7
2018-08-13T00:24:36.158Z,22.71
2018-08-13T00:25:46.245Z,22.61
2018-08-13T00:26:56.427Z,22.7
2018-08-13T00:28:06.493Z,22.6
2018-08-13T00:29:16.574Z,22.6
2018-08-13T00:30:26.649Z,22.55
2018-08-13T00:31:36.738Z,22.51
2018-08-13T00:32:46.855Z,22.51
2018-08-13T00:33:56.951Z,22.49
2018-08-13T00:35:07.043Z,22.44
2018-08-13T00:36:17.144Z,22.45
2018-08-13T00:37:27.212Z,22.41
2018-08-13T00:38:37.333Z,22.34
2018-08-13T00:39:47.411Z,22.41
2018-08-13T00:40:57.511Z,22.42
2018-08-13T00:42:07.608Z,22.27
2018-08-13T00:43:17.415Z,22.31
2018-08-13T00:44:27.286Z,22.41
2018-08-13T00:45:37.367Z,22.3
2018-08-13T00:46:47.216Z,22.29
2018-08-13T00:47:57.293Z,22.24
2018-08-13T00:49:07.408Z,22.23
2018-08-13T00:50:16.961Z,22.31
2018-08-13T00:51:27.024Z,22.23
2018-08-13T00:52:37.116Z,22.3
2018-08-13T00:53:47.177Z,22.16
2018-08-13T00:54:56.996Z,22.26
2018-08-13T00:56:07.069Z,22.27
2018-08-13T00:57:17.155Z,22.24
2018-08-13T00:58:27.246Z,22.26
2018-08-13T00:59:37.579Z,22.26
2018-08-13T01:00:47.662Z,22.14
2018-08-13T01:01:57.528Z,22.15
2018-08-13T01:03:07.620Z,22.14
2018-08-13T01:04:17.721Z,22.18
2018-08-13T01:05:27.556Z,22.18
2018-08-13T01:06:37.641Z,22.16
2018-08-13T01:07:48.015Z,22.08
2018-08-13T01:08:57.850Z,22.14
2018-08-13T01:10:08.073Z,22.05
2018-08-13T01:11:18.143Z,22.04
2018-08-13T01:12:28.226Z,21.97
2018-08-13T01:13:38.038Z,21.93
2018-08-13T01:14:48.150Z,22
2018-08-13T01:15:57.984Z,22.02
2018-08-13T01:17:08.132Z,22.02
2018-08-13T01:18:18.206Z,21.94
2018-08-13T01:19:28.038Z,21.94
2018-08-13T01:20:38.126Z,21.89
2018-08-13T01:21:47.932Z,21.83
2018-08-13T01:22:58.009Z,21.86
2018-08-13T01:24:08.082Z,21.83
2018-08-13T01:25:18.162Z,21.85
2018-08-13T01:26:28.003Z,21.83
2018-08-13T01:27:37.816Z,21.82
2018-08-13T01:28:47.636Z,21.8
2018-08-13T01:29:57.731Z,21.74
2018-08-13T01:31:07.838Z,21.78
2018-08-13T01:32:17.383Z,21.73
2018-08-13T01:33:27.472Z,21.68
2018-08-13T01:34:37.560Z,21.61
2018-08-13T01:35:47.665Z,21.62
2018-08-13T01:36:58.014Z,21.56
2018-08-13T01:38:07.857Z,21.71
2018-08-13T01:39:17.427Z,21.61
2018-08-13T01:40:27.547Z,21.59
2018-08-13T01:41:37.627Z,21.59
2018-08-13T01:42:47.552Z,21.67
2018-08-13T01:43:57.370Z,21.61
2018-08-13T01:45:07.446Z,21.66
2018-08-13T01:46:17.250Z,21.64
2018-08-13T01:47:27.319Z,21.56
2018-08-13T01:48:37.400Z,21.61
2018-08-13T01:49:46.950Z,21.59
2018-08-13T01:50:57.028Z,21.64
2018-08-13T01:52:07.109Z,21.49
2018-08-13T01:53:17.180Z,21.55
2018-08-13T01:54:27.315Z,21.46
2018-08-13T01:55:37.407Z,21.43
2018-08-13T01:56:47.485Z,21.4
2018-08-13T01:57:57.575Z,21.37
2018-08-13T01:59:07.121Z,21.37
2018-08-13T02:00:17.296Z,21.28
2018-08-13T02:01:27.425Z,21.33
2018-08-13T02:02:38.057Z,21.38
2018-08-13T02:03:47.874Z,21.34
2018-08-13T02:04:57.936Z,21.31
2018-08-13T02:06:08.122Z,21.33
2018-08-13T02:07:18.200Z,21.36
2018-08-13T02:08:28.474Z,21.34
2018-08-13T02:09:38.312Z,21.22
2018-08-13T02:10:48.390Z,21.23
2018-08-13T02:11:58.478Z,21.25
2018-08-13T02:13:08.578Z,21.23
2018-08-13T02:14:18.390Z,21.15
2018-08-13T02:15:28.467Z,21.18
2018-08-13T02:16:38.530Z,21.25
2018-08-13T02:17:48.600Z,21.19
2018-08-13T02:18:58.732Z,21.12
2018-08-13T02:20:08.803Z,21.13
2018-08-13T02:21:18.631Z,21.06
2018-08-13T02:22:28.698Z,21.12
2018-08-13T02:23:38.756Z,21.15
2018-08-13T02:24:48.570Z,21.06
2018-08-13T02:25:58.646Z,21.01
2018-08-13T02:27:08.462Z,20.98
2018-08-13T02:28:18.561Z,20.91
2018-08-13T02:29:28.628Z,20.94
2018-08-13T02:30:38.746Z,20.97
2018-08-13T02:31:48.839Z,20.94
2018-08-13T02:32:58.921Z,20.93
2018-08-13T02:34:09.030Z,20.98
2018-08-13T02:35:19.114Z,20.94
2018-08-13T02:36:29.226Z,20.94
2018-08-13T02:37:39.315Z,20.86
2018-08-13T02:38:49.693Z,20.9
2018-08-13T02:39:59.981Z,20.85
2018-08-13T02:41:10.114Z,20.9
2018-08-13T02:42:19.928Z,20.9
2018-08-13T02:43:30.059Z,20.82
2018-08-13T02:44:40.180Z,20.86
2018-08-13T02:45:50.062Z,20.83
2018-08-13T02:47:00.437Z,20.78
2018-08-13T02:48:10.264Z,20.78
2018-08-13T02:49:19.814Z,20.78
2018-08-13T02:50:29.889Z,20.75
2018-08-13T02:51:39.706Z,20.85
2018-08-13T02:52:49.259Z,20.75
2018-08-13T02:53:59.347Z,20.78
2018-08-13T02:55:09.375Z,20.72
2018-08-13T02:56:19.500Z,20.71
2018-08-13T02:57:29.348Z,20.71
2018-08-13T02:58:39.480Z,20.64
2018-08-13T02:59:49.027Z,20.63
2018-08-13T03:00:59.111Z,20.71
2018-08-13T03:02:09.197Z,20.67
2018-08-13T03:35:02.548Z,18.54
2018-08-13T03:36:12.651Z,18.45
2018-08-13T03:37:22.708Z,18.47
2018-08-13T03:38:32.787Z,18.45
2018-08-13T03:39:42.885Z,18.45
2018-08-13T03:40:52.706Z,18.59
2018-08-13T03:42:02.819Z,18.57
2018-08-13T03:43:12.354Z,18.68
2018-08-13T03:44:22.434Z,18.78
2018-08-13T03:45:32.504Z,18.84
2018-08-13T03:46:42.622Z,18.91
2018-08-13T03:47:52.707Z,18.96
2018-08-13T03:49:02.776Z,19.13
2018-08-13T03:50:12.888Z,19.19
2018-08-13T03:51:22.960Z,19.27
2018-08-13T03:52:33.027Z,19.37
2018-08-13T03:53:42.932Z,19.47
2018-08-13T03:54:53.080Z,19.56
2018-08-13T03:56:03.158Z,19.56
2018-08-13T03:57:13.280Z,19.65
2018-08-13T03:58:23.404Z,19.78
2018-08-13T03:59:33.498Z,19.82
2018-08-13T04:00:43.298Z,19.86
2018-08-13T04:01:53.360Z,19.98
2018-08-13T04:03:03.175Z,19.98
2018-08-13T04:04:13.311Z,20.15
2018-08-13T04:05:23.179Z,20.04
2018-08-13T04:06:33.300Z,20.12
2018-08-13T04:07:43.379Z,20.12
2018-08-13T04:08:53.461Z,20.22
2018-08-13T04:10:03.790Z,20.29
2018-08-13T04:11:13.914Z,20.38
2018-08-13T04:12:23.989Z,20.41
2018-08-13T04:13:34.075Z,20.46
2018-08-13T04:14:44.144Z,20.49
2018-08-13T04:15:54.274Z,20.61
2018-08-13T04:17:04.580Z,20.72
2018-08-13T04:18:14.676Z,20.74
2018-08-13T04:19:24.747Z,20.75
2018-08-13T04:20:34.842Z,20.75
2018-08-13T04:21:44.679Z,20.75
2018-08-13T04:22:54.491Z,20.83
2018-08-13T04:24:04.564Z,20.88
2018-08-13T04:25:14.892Z,20.97
2018-08-13T04:26:24.960Z,20.94
2018-08-13T04:27:35.057Z,21.11
2018-08-13T04:28:45.130Z,21.43
2018-08-13T04:29:55.220Z,21.9
2018-08-13T04:31:05.324Z,22.12
2018-08-13T04:32:15.413Z,22.34
2018-08-13T04:33:25.584Z,22.96
2018-08-13T04:34:35.426Z,23.24
2018-08-13T04:35:45.242Z,22.94
2018-08-13T04:36:55.047Z,22.96
2018-08-13T04:38:05.665Z,23.03
2018-08-13T04:39:15.765Z,22.91
2018-08-13T04:40:25.861Z,22.67
2018-08-13T04:41:35.958Z,22.55
2018-08-13T04:42:46.061Z,22.51
2018-08-13T04:43:56.134Z,22.54
2018-08-13T04:45:06.215Z,22.52
2018-08-13T04:46:16.030Z,22.73
2018-08-13T04:47:26.113Z,22.89
2018-08-13T04:48:35.960Z,22.88
2018-08-13T04:49:45.786Z,22.94
2018-08-13T04:50:55.869Z,23.15
2018-08-13T04:52:06.034Z,23.67
2018-08-13T04:53:16.269Z,24.45
2018-08-13T04:54:26.352Z,25.11
2018-08-13T04:55:36.417Z,26.01
2018-08-13T04:56:46.495Z,26.94
2018-08-13T04:57:56.047Z,27.91
2018-08-13T04:59:06.420Z,28.55
2018-08-13T05:00:16.515Z,29.1
2018-08-13T05:01:26.615Z,29.63
2018-08-13T05:02:36.683Z,30.07
2018-08-13T05:03:46.947Z,30.4
2018-08-13T05:04:56.498Z,30.73
2018-08-13T05:06:06.373Z,30.99
2018-08-13T05:07:16.513Z,31.21
2018-08-13T05:08:27.003Z,31.38
2018-08-13T05:09:36.822Z,31.44
2018-08-13T05:10:46.641Z,31.71
2018-08-13T05:11:56.716Z,31.8
2018-08-13T05:13:06.808Z,32.08
2018-08-13T05:14:16.900Z,32.09
2018-08-13T05:15:26.723Z,32.3
2018-08-13T05:16:36.539Z,32.38
2018-08-13T05:17:47.441Z,32.52
2018-08-13T05:18:57.251Z,32.62
2018-08-13T05:20:07.340Z,32.71
2018-08-13T05:21:17.362Z,32.84
2018-08-13T05:22:27.795Z,32.86
2018-08-13T05:23:37.920Z,32.91
2018-08-13T05:24:47.742Z,32.89
2018-08-13T05:25:57.301Z,32.81
2018-08-13T05:27:07.406Z,32.84
2018-08-13T05:28:17.227Z,32.87
2018-08-13T05:29:27.392Z,32.87
2018-08-13T05:30:37.471Z,32.87
2018-08-13T05:31:47.283Z,32.91
2018-08-13T05:32:57.368Z,32.91
2018-08-13T05:34:07.446Z,32.89
2018-08-13T05:35:17.585Z,32.83
2018-08-13T05:36:27.706Z,32.9
2018-08-13T05:37:37.791Z,32.86
2018-08-13T05:38:47.883Z,32.9
2018-08-13T05:39:57.698Z,32.81
2018-08-13T05:41:07.783Z,32.8
2018-08-13T05:42:17.864Z,32.69
2018-08-13T05:43:27.929Z,32.76
2018-08-13T05:44:38.040Z,32.75
2018-08-13T05:45:48.124Z,32.81
2018-08-13T05:46:58.215Z,32.8
2018-08-13T05:48:08.043Z,32.74
2018-08-13T05:49:18.132Z,32.79
2018-08-13T05:50:28.200Z,32.62
2018-08-13T05:51:38.048Z,32.67
2018-08-13T05:52:48.153Z,32.59
2018-08-13T05:53:58.401Z,32.5
2018-08-13T05:55:08.481Z,32.38
2018-08-13T05:56:18.562Z,32.38
2018-08-13T05:57:28.864Z,32.25
2018-08-13T05:58:38.799Z,31.75
2018-08-13T05:59:48.873Z,30.97
2018-08-13T06:00:58.686Z,30.06
2018-08-13T06:02:08.749Z,29.58
2018-08-13T06:03:19.122Z,29.17
2018-08-13T06:04:29.323Z,28.88
2018-08-13T06:05:39.382Z,28.48
2018-08-13T06:06:49.472Z,28.26
2018-08-13T06:07:59.572Z,28.26
2018-08-13T06:09:09.657Z,28.14
2018-08-13T06:10:19.786Z,28.02
2018-08-13T06:11:30.331Z,27.87
2018-08-13T06:12:40.467Z,27.86
2018-08-13T06:13:50.544Z,27.84
2018-08-13T06:15:00.888Z,27.71
2018-08-13T06:16:11.021Z,27.59
2018-08-13T06:17:21.091Z,27.52
2018-08-13T06:18:30.916Z,27.36
2018-08-13T06:19:41.000Z,27.38
2018-08-13T06:20:50.816Z,27.3
2018-08-13T06:22:00.903Z,27.3
2018-08-13T06:23:10.730Z,27.23
2018-08-13T06:24:21.119Z,27.16
2018-08-13T06:25:31.235Z,27.12
2018-08-13T06:26:41.368Z,27.18
2018-08-13T06:27:51.449Z,27.18
2018-08-13T06:29:01.540Z,27.12
2018-08-13T06:30:11.853Z,27.08
2018-08-13T06:31:22.261Z,27.11
2018-08-13T06:32:32.376Z,27.23
2018-08-13T06:33:42.519Z,27.27
2018-08-13T06:34:52.591Z,27.28
2018-08-13T06:36:02.814Z,27.34
2018-08-13T06:37:13.054Z,27.34
2018-08-13T06:38:23.386Z,27.37
2018-08-13T06:39:33.520Z,27.45
2018-08-13T06:40:43.589Z,27.51
2018-08-13T06:41:53.443Z,27.46
2018-08-13T06:43:03.576Z,27.52
2018-08-13T06:44:13.384Z,27.53
2018-08-13T06:45:23.536Z,27.53
2018-08-13T06:46:33.629Z,27.48
2018-08-13T06:47:43.704Z,27.49
2018-08-13T06:48:53.549Z,27.49
2018-08-13T06:50:03.623Z,27.52
2018-08-13T06:51:13.444Z,27.46
2018-08-13T06:52:23.527Z,27.53
2018-08-13T06:53:33.608Z,27.61
2018-08-13T06:54:43.697Z,27.62
2018-08-13T06:55:53.776Z,27.62
2018-08-13T06:57:03.853Z,27.64
2018-08-13T06:58:13.951Z,27.68
2018-08-13T06:59:24.020Z,27.68
2018-08-13T07:00:34.094Z,27.65
2018-08-13T07:01:43.958Z,27.75
2018-08-13T07:02:53.787Z,27.72
2018-08-13T07:04:03.878Z,27.84
2018-08-13T07:05:13.752Z,27.86
2018-08-13T07:06:23.292Z,27.98
2018-08-13T07:07:32.862Z,27.93
2018-08-13T07:08:42.950Z,28.01
2018-08-13T07:09:53.048Z,27.99
2018-08-13T07:11:03.163Z,28.03
2018-08-13T07:12:12.983Z,28.11
2018-08-13T07:13:23.068Z,28.12
2018-08-13T07:14:33.388Z,28.17
2018-08-13T07:15:43.646Z,28.2
2018-08-13T07:16:54.003Z,28.2
2018-08-13T07:18:03.817Z,28.21
2018-08-13T07:19:13.886Z,28.26
2018-08-13T07:20:23.693Z,28.2
2018-08-13T07:21:33.562Z,28.31
2018-08-13T07:22:43.658Z,28.41
2018-08-13T07:23:53.470Z,28.33
2018-08-13T07:25:03.569Z,28.42
2018-08-13T07:26:13.651Z,28.41
2018-08-13T07:27:23.745Z,28.36
2018-08-13T07:28:33.898Z,28.48
2018-08-13T07:29:43.971Z,28.46
2018-08-13T07:30:53.781Z,28.55
2018-08-13T07:32:04.144Z,28.67
2018-08-13T07:33:13.960Z,28.7
2018-08-13T07:34:24.634Z,28.65
2018-08-13T07:35:34.754Z,28.72
2018-08-13T07:36:44.892Z,28.86
2018-08-13T07:37:55.018Z,28.88
2018-08-13T07:39:05.517Z,28.98
2018-08-13T07:40:15.860Z,29.02
2018-08-13T07:41:25.720Z,29.1
2018-08-13T07:42:35.809Z,29.13
2018-08-13T07:43:46.078Z,29.18
2018-08-13T07:44:56.250Z,29.21
2018-08-13T07:46:06.355Z,29.23
2018-08-13T07:47:16.449Z,29.28
2018-08-13T07:48:26.542Z,29.28
2018-08-13T07:49:36.703Z,29.38
2018-08-13T07:50:47.043Z,29.47
2018-08-13T07:51:57.019Z,29.45
2018-08-13T07:53:07.567Z,29.47
2018-08-13T07:54:18.722Z,29.54
2018-08-13T07:55:28.977Z,29.52
2018-08-13T07:56:38.810Z,29.61
2018-08-13T07:57:48.931Z,29.6
2018-08-13T07:58:59.049Z,29.7
2018-08-13T08:00:09.543Z,29.77
2018-08-13T08:01:19.673Z,29.88
2018-08-13T08:02:29.799Z,29.88
2018-08-13T08:03:39.643Z,30.06
2018-08-13T08:04:49.737Z,30.09
2018-08-13T08:05:59.877Z,30.07
2018-08-13T08:07:09.977Z,30.07
2018-08-13T08:08:20.071Z,30.1
2018-08-13T08:09:29.927Z,30.11
2018-08-13T08:10:40.046Z,30.16
2018-08-13T08:11:49.639Z,30.21
2018-08-13T08:12:59.484Z,30.28
2018-08-13T08:14:09.568Z,30.25
2018-08-13T08:15:19.658Z,30.35
2018-08-13T08:16:29.763Z,30.31
2018-08-13T08:17:39.641Z,30.28
2018-08-13T08:18:49.759Z,30.39
2018-08-13T08:19:59.834Z,30.45
2018-08-13T08:21:10.340Z,30.45
2018-08-13T08:22:20.565Z,30.59
2018-08-13T08:23:30.649Z,30.49
2018-08-13T08:24:40.731Z,30.48
2018-08-13T08:25:50.825Z,30.44
2018-08-13T08:27:00.902Z,30.49
2018-08-13T08:28:11.010Z,30.45
2018-08-13T08:29:21.217Z,30.49
2018-08-13T08:30:31.688Z,30.59
2018-08-13T08:31:41.530Z,30.57
2018-08-13T08:32:51.609Z,30.7
2018-08-13T08:34:01.707Z,30.71
2018-08-13T08:35:11.894Z,30.77
2018-08-13T08:36:21.963Z,30.88
2018-08-13T08:37:32.114Z,30.82
2018-08-13T08:38:42.228Z,30.86
2018-08-13T08:39:52.333Z,30.97
2018-08-13T08:41:02.467Z,30.99
2018-08-13T08:42:12.791Z,30.99
2018-08-13T08:43:22.874Z,31.08
2018-08-13T08:44:32.719Z,31.13
2018-08-13T08:45:42.807Z,31.15
2018-08-13T08:46:53.113Z,31.19
2018-08-13T08:48:03.438Z,31.25
2018-08-13T08:49:13.524Z,31.23
2018-08-13T08:50:23.590Z,31.18
2018-08-13T08:51:33.698Z,31.23
2018-08-13T08:52:43.881Z,31.23
2018-08-13T08:53:53.976Z,31.26
2018-08-13T08:55:03.807Z,31.19
2018-08-13T08:56:13.888Z,31.21
2018-08-13T08:57:23.990Z,31.31
2018-08-13T08:58:48.923Z,31.41
2018-08-13T08:59:58.739Z,31.45
2018-08-13T09:01:08.822Z,31.43
2018-08-13T09:02:18.898Z,31.47
2018-08-13T09:03:29.267Z,31.5
2018-08-13T09:04:40.410Z,31.47
2018-08-13T09:05:50.592Z,31.45
2018-08-13T09:07:00.627Z,31.58
2018-08-13T09:08:10.707Z,31.62
2018-08-13T09:09:20.753Z,31.6
2018-08-13T09:10:30.662Z,31.63
2018-08-13T09:11:40.750Z,31.6
2018-08-13T09:12:50.828Z,31.7
2018-08-13T09:14:00.906Z,31.75
2018-08-13T09:15:11.126Z,31.72
2018-08-13T09:16:21.204Z,31.82
2018-08-13T09:17:30.773Z,31.8
2018-08-13T09:18:40.905Z,31.9
2018-08-13T09:19:50.999Z,31.93
2018-08-13T09:21:00.902Z,31.95
2018-08-13T09:22:10.736Z,32.03
2018-08-13T09:23:20.818Z,32.09
2018-08-13T09:24:30.844Z,32.09
2018-08-13T09:25:41.315Z,32.09
2018-08-13T09:26:51.414Z,32.12
2018-08-13T09:28:01.540Z,32.19
2018-08-13T09:29:11.663Z,32.15
2018-08-13T09:30:21.725Z,32.2
2018-08-13T09:31:31.276Z,32.16
2018-08-13T09:32:41.115Z,32.3
2018-08-13T09:33:51.053Z,32.43
2018-08-13T09:35:00.906Z,32.38
2018-08-13T09:36:10.994Z,32.47
2018-08-13T09:37:21.090Z,32.49
2018-08-13T09:38:30.913Z,32.5
2018-08-13T09:39:41.028Z,32.54
2018-08-13T09:40:51.175Z,32.64
2018-08-13T09:42:01.252Z,32.62
2018-08-13T09:43:11.275Z,32.68
2018-08-13T09:44:21.353Z,32.72
2018-08-13T09:45:31.021Z,32.79
2018-08-13T09:46:41.109Z,32.98
2018-08-13T09:47:50.956Z,32.87
2018-08-13T09:49:00.827Z,33.01
2018-08-13T09:50:10.668Z,32.99
2018-08-13T09:51:20.505Z,33.01
2018-08-13T09:52:30.599Z,33.03
2018-08-13T09:53:40.766Z,33.06
2018-08-13T09:54:50.390Z,33.11
2018-08-13T09:56:00.463Z,33.2
2018-08-13T09:57:10.291Z,33.24
2018-08-13T09:58:20.357Z,33.23
2018-08-13T09:59:30.435Z,33.36
2018-08-13T10:00:40.253Z,33.39
2018-08-13T10:01:50.351Z,33.48
2018-08-13T10:03:00.449Z,33.53
2018-08-13T10:04:10.554Z,33.55
2018-08-13T10:05:20.661Z,33.68
2018-08-13T10:06:30.750Z,33.69
2018-08-13T10:07:40.846Z,33.75
2018-08-13T10:08:50.677Z,33.78
2018-08-13T10:10:00.765Z,33.83
2018-08-13T10:11:10.607Z,33.83
2018-08-13T10:12:20.466Z,33.97
2018-08-13T10:13:30.318Z,33.92
2018-08-13T10:14:40.447Z,33.92
2018-08-13T10:15:50.543Z,33.93
2018-08-13T10:17:00.931Z,34.06
2018-08-13T10:18:10.783Z,34.1
2018-08-13T10:19:20.888Z,34.15
2018-08-13T10:20:30.783Z,34.21
2018-08-13T10:21:40.706Z,34.22
2018-08-13T10:22:50.821Z,34.36
2018-08-13T10:24:00.907Z,34.36
2018-08-13T10:25:10.795Z,34.32
2018-08-13T10:26:20.999Z,34.41
2018-08-13T10:27:31.100Z,34.36
2018-08-13T10:28:41.217Z,34.4
2018-08-13T10:29:51.741Z,34.33
2018-08-13T10:31:02.001Z,34.34
2018-08-13T10:32:12.148Z,34.3
2018-08-13T10:33:22.439Z,34.41
2018-08-13T10:34:32.542Z,34.43
2018-08-13T10:35:42.652Z,34.56
2018-08-13T10:36:52.778Z,34.64
2018-08-13T10:38:03.039Z,34.79
2018-08-13T10:39:13.475Z,34.84
2018-08-13T10:40:23.584Z,34.93
2018-08-13T10:41:33.684Z,34.96
2018-08-13T10:42:43.548Z,34.96
2018-08-13T10:43:53.686Z,34.97
2018-08-13T10:45:03.522Z,35.04
2018-08-13T10:46:13.350Z,35.04
2018-08-13T10:47:23.480Z,35.09
2018-08-13T10:48:33.586Z,35.09
2018-08-13T10:49:43.999Z,35.16
2018-08-13T10:50:53.846Z,35.31
2018-08-13T10:52:03.941Z,35.31
2018-08-13T10:53:14.037Z,35.21
2018-08-13T10:54:24.120Z,35.27
2018-08-13T10:55:33.967Z,35.34
2018-08-13T10:56:44.080Z,35.39
2018-08-13T10:57:54.233Z,35.52
2018-08-13T10:59:04.082Z,35.55
2018-08-13T11:00:14.202Z,35.57
2018-08-13T11:01:24.400Z,35.52
2018-08-13T11:02:34.527Z,35.57
2018-08-13T11:03:44.365Z,35.53
2018-08-13T11:04:54.450Z,35.69
2018-08-13T11:06:04.546Z,35.74
2018-08-13T11:07:14.430Z,35.72
2018-08-13T11:08:24.524Z,35.74
2018-08-13T11:09:34.624Z,35.76
2018-08-13T11:10:44.727Z,35.86
2018-08-13T11:11:54.837Z,35.77
2018-08-13T11:13:04.977Z,35.92
2018-08-13T11:14:14.828Z,35.9
2018-08-13T11:15:24.939Z,35.92
2018-08-13T11:16:35.054Z,36.06
2018-08-13T11:17:45.154Z,36.06
2018-08-13T11:18:55.296Z,36.06
2018-08-13T11:20:05.384Z,36.18
2018-08-13T11:21:15.221Z,36.14
2018-08-13T11:22:25.053Z,36.21
2018-08-13T11:23:35.133Z,36.19
2018-08-13T11:24:45.022Z,36.21
2018-08-13T11:25:55.113Z,36.22
2018-08-13T11:27:05.240Z,36.33
2018-08-13T11:28:15.366Z,36.33
2018-08-13T11:29:25.463Z,36.39
2018-08-13T11:30:35.724Z,36.41
2018-08-13T11:31:45.572Z,36.51
2018-08-13T11:32:55.683Z,36.59
2018-08-13T11:34:05.715Z,36.56
2018-08-13T11:35:15.565Z,36.62
2018-08-13T11:36:25.773Z,36.67
2018-08-13T11:37:35.869Z,36.62
2018-08-13T11:38:45.988Z,36.73
2018-08-13T11:39:56.082Z,36.75
2018-08-13T11:41:06.209Z,36.71
2018-08-13T11:42:16.316Z,36.81
2018-08-13T11:43:26.150Z,36.89
2018-08-13T11:44:36.000Z,36.9
2018-08-13T11:45:45.824Z,36.93
2018-08-13T11:46:55.681Z,37.05
2018-08-13T11:48:05.822Z,37.02
2018-08-13T11:49:16.152Z,37.08
2018-08-13T11:50:26.265Z,37.08
2018-08-13T11:51:36.365Z,37.07
2018-08-13T11:52:46.439Z,37.17
2018-08-13T11:53:56.588Z,37.17
2018-08-13T11:55:06.686Z,37.17
2018-08-13T11:56:16.819Z,37.15
2018-08-13T11:57:26.729Z,37.22
2018-08-13T11:58:36.901Z,37.22
2018-08-13T11:59:47.048Z,37.23
2018-08-13T12:00:57.268Z,37.27
2018-08-13T12:02:07.900Z,37.36
2018-08-13T12:03:18.184Z,37.42
2018-08-13T12:04:28.288Z,37.49
2018-08-13T12:05:38.423Z,37.61
2018-08-13T12:06:48.516Z,37.57
2018-08-13T12:07:58.608Z,37.68
2018-08-13T12:09:08.435Z,37.66
2018-08-13T12:10:18.303Z,37.62
2018-08-13T12:11:28.421Z,37.53
2018-08-13T12:12:38.482Z,37.42
2018-08-13T12:13:48.576Z,37.41
2018-08-13T12:14:58.665Z,37.45
2018-08-13T12:16:08.769Z,37.53
2018-08-13T12:17:18.865Z,37.61
2018-08-13T12:18:28.959Z,37.59
2018-08-13T12:19:38.579Z,37.59
2018-08-13T12:20:48.865Z,37.49
2018-08-13T12:21:58.712Z,37.51
2018-08-13T12:23:08.783Z,37.54
2018-08-13T12:24:18.929Z,37.59
2018-08-13T12:25:29.051Z,37.56
2018-08-13T12:26:39.159Z,37.65
2018-08-13T12:27:49.497Z,37.57
2018-08-13T12:28:59.607Z,37.57
2018-08-13T12:30:09.694Z,37.68
2018-08-13T12:31:19.503Z,37.65
2018-08-13T12:32:29.344Z,37.71
2018-08-13T12:33:39.194Z,37.84
2018-08-13T12:34:49.080Z,37.83
2018-08-13T12:35:59.196Z,37.83
2018-08-13T12:37:09.305Z,37.84
2018-08-13T12:38:19.156Z,37.81
2018-08-13T12:39:29.254Z,37.86
2018-08-13T12:40:39.356Z,37.69
2018-08-13T12:41:49.489Z,37.71
2018-08-13T12:42:59.319Z,37.69
2018-08-13T12:44:09.429Z,37.62
2018-08-13T12:45:19.533Z,37.69
2018-08-13T12:46:29.658Z,37.65
2018-08-13T12:47:39.751Z,37.71
2018-08-13T12:48:49.851Z,37.75
2018-08-13T12:49:59.943Z,37.8
2018-08-13T12:51:10.363Z,37.8
2018-08-13T12:52:20.536Z,37.83
2018-08-13T12:53:30.629Z,37.81
2018-08-13T12:54:40.459Z,37.83
2018-08-13T12:55:50.579Z,37.8
2018-08-13T12:57:00.440Z,37.84
2018-08-13T12:58:10.691Z,37.65
2018-08-13T12:59:20.781Z,37.74
2018-08-13T13:00:30.622Z,37.59
2018-08-13T13:01:40.445Z,37.66
2018-08-13T13:02:50.535Z,37.57
2018-08-13T13:04:00.613Z,37.61
2018-08-13T13:05:10.731Z,37.62
2018-08-13T13:06:20.582Z,37.56
2018-08-13T13:07:30.413Z,37.61
2018-08-13T13:08:40.259Z,37.61
2018-08-13T13:09:50.408Z,37.64
2018-08-13T13:11:00.700Z,37.61
2018-08-13T13:12:10.514Z,37.66
2018-08-13T13:13:20.603Z,37.71
2018-08-13T13:14:30.161Z,37.79
2018-08-13T13:15:40.340Z,37.75
2018-08-13T13:16:50.421Z,37.8
2018-08-13T13:18:00.545Z,37.83
2018-08-13T13:19:10.408Z,37.8
2018-08-13T13:20:20.502Z,37.81
2018-08-13T13:21:30.513Z,37.8
2018-08-13T13:22:40.590Z,37.8
2018-08-13T13:23:50.662Z,37.86
2018-08-13T13:25:00.902Z,37.74
2018-08-13T13:26:11.023Z,37.72
2018-08-13T13:27:20.862Z,37.79
2018-08-13T13:28:30.943Z,37.79
2018-08-13T13:29:41.029Z,37.71
2018-08-13T13:30:51.136Z,37.71
2018-08-13T13:32:00.990Z,37.71
2018-08-13T13:33:11.139Z,37.71
2018-08-13T13:34:20.961Z,37.68
2018-08-13T13:35:30.789Z,37.68
2018-08-13T13:36:40.606Z,37.75
2018-08-13T13:37:50.690Z,37.74
2018-08-13T13:39:00.819Z,37.8
2018-08-13T13:40:10.985Z,37.76
2018-08-13T13:41:20.913Z,37.79
2018-08-13T13:42:31.005Z,37.76
2018-08-13T13:43:41.103Z,37.66
2018-08-13T13:44:50.977Z,37.84
2018-08-13T13:46:00.816Z,37.83
2018-08-13T13:47:11.103Z,37.79
2018-08-13T13:48:20.916Z,37.75
2018-08-13T13:49:31.057Z,37.69
2018-08-13T13:50:40.880Z,37.69
2018-08-13T13:51:51.076Z,37.68
2018-08-13T13:53:01.417Z,37.65
2018-08-13T13:54:11.506Z,37.61
2018-08-13T13:55:21.617Z,37.61
2018-08-13T13:56:31.801Z,37.54
2018-08-13T13:57:41.619Z,37.54
2018-08-13T13:58:51.460Z,37.46
2018-08-13T14:00:01.054Z,37.49
2018-08-13T14:01:11.181Z,37.49
2018-08-13T14:02:21.321Z,37.45
2018-08-13T14:03:31.404Z,37.44
2018-08-13T14:04:41.509Z,37.46
2018-08-13T14:05:51.350Z,37.45
2018-08-13T14:07:01.480Z,37.51
2018-08-13T14:08:11.338Z,37.49
2018-08-13T14:09:21.234Z,37.44
2018-08-13T14:10:31.337Z,37.54
2018-08-13T14:11:41.158Z,37.56
2018-08-13T14:12:51.268Z,37.57
2018-08-13T14:14:01.421Z,37.48
2018-08-13T14:15:11.509Z,37.36
2018-08-13T14:16:21.055Z,37.29
2018-08-13T14:17:31.345Z,37.31
2018-08-13T14:18:41.614Z,37.39
2018-08-13T14:19:51.719Z,37.31
2018-08-13T14:21:01.828Z,37.26
2018-08-13T14:22:11.680Z,37.27
2018-08-13T14:23:21.775Z,37.37
2018-08-13T14:24:31.896Z,37.36
2018-08-13T14:25:42.067Z,37.39
2018-08-13T14:26:52.167Z,37.36
2018-08-13T14:28:02.410Z,37.34
2018-08-13T14:29:12.951Z,37.39
2018-08-13T14:30:22.793Z,37.29
2018-08-13T14:31:33.169Z,37.29
2018-08-13T14:32:43.350Z,37.29
2018-08-13T14:33:53.464Z,37.3
2018-08-13T14:35:03.563Z,37.29
2018-08-13T14:36:13.663Z,37.3
2018-08-13T14:37:23.827Z,37.11
2018-08-13T14:38:33.928Z,37.22
2018-08-13T14:39:44.038Z,37.17
2018-08-13T14:40:54.349Z,37.22
2018-08-13T14:42:04.472Z,37.17
2018-08-13T14:43:14.566Z,37.11
2018-08-13T14:44:24.663Z,37.07
2018-08-13T14:45:34.752Z,37.04
2018-08-13T14:46:44.958Z,36.97
2018-08-13T14:47:55.059Z,36.96
2018-08-13T14:49:05.276Z,36.86
2018-08-13T14:50:15.415Z,36.83
2018-08-13T14:51:25.391Z,36.78
2018-08-13T14:52:35.547Z,36.88
2018-08-13T14:53:45.626Z,36.84
2018-08-13T14:54:55.730Z,36.81
2018-08-13T14:56:05.953Z,36.89
2018-08-13T14:57:16.094Z,36.92
2018-08-13T14:58:26.203Z,36.88
2018-08-13T14:59:36.371Z,36.9
2018-08-13T15:00:46.205Z,36.86
2018-08-13T15:01:56.292Z,36.77
2018-08-13T15:03:06.409Z,36.81
2018-08-13T15:04:16.519Z,36.73
2018-08-13T15:05:26.622Z,36.77
2018-08-13T15:06:36.884Z,36.75
2018-08-13T15:07:46.988Z,36.73
2018-08-13T15:08:56.564Z,36.73
2018-08-13T15:10:06.400Z,36.67
2018-08-13T15:11:16.481Z,36.68
2018-08-13T15:12:26.306Z,36.7
2018-08-13T15:13:36.414Z,36.78
2018-08-13T15:14:46.489Z,36.71
2018-08-13T15:15:56.579Z,36.78
2018-08-13T15:17:06.670Z,36.74
2018-08-13T15:18:16.741Z,36.65
2018-08-13T15:19:26.838Z,36.74
2018-08-13T15:20:36.926Z,36.75
2018-08-13T15:21:47.014Z,36.63
2018-08-13T15:22:57.121Z,36.71
2018-08-13T15:24:07.210Z,36.58
2018-08-13T15:25:17.354Z,36.58
2018-08-13T15:26:27.455Z,36.59
2018-08-13T15:27:38.292Z,36.63
2018-08-13T15:28:49.019Z,36.55
2018-08-13T15:29:59.341Z,36.53
2018-08-13T15:31:09.468Z,36.51
2018-08-13T15:32:19.598Z,36.47
2018-08-13T15:33:29.576Z,36.46
2018-08-13T15:34:40.070Z,36.41
2018-08-13T15:35:50.209Z,36.43